createdAt,value
2019-03-10T00:00:49.071Z,6.57
2019-03-10T00:03:21.603Z,9.83
2019-03-10T00:05:55.875Z,9.23
2019-03-10T00:08:28.457Z,9.87
2019-03-10T00:11:00.525Z,6.73
2019-03-10T00:13:38.916Z,6.13
2019-03-10T00:16:11.583Z,9.47
2019-03-10T00:18:42.089Z,6.77
2019-03-10T00:21:14.743Z,8.37
2019-03-10T00:23:48.329Z,6.10
2019-03-10T00:26:24.338Z,10.00
2019-03-10T00:28:56.514Z,9.53
2019-03-10T00:31:27.035Z,7.47
2019-03-10T00:33:58.565Z,6.40
2019-03-10T00:36:32.107Z,10.27
2019-03-10T00:39:12.585Z,8.43
2019-03-10T00:42:19.036Z,8.07
2019-03-10T00:45:15.528Z,9.70
2019-03-10T00:48:18.336Z,6.33
2019-03-10T00:51:25.721Z,10.73
2019-03-10T00:53:56.720Z,7.83
2019-03-10T00:56:30.591Z,10.57
2019-03-10T00:59:01.126Z,10.17
2019-03-10T01:01:31.583Z,7.67
2019-03-10T01:04:04.756Z,8.30
2019-03-10T01:06:35.335Z,7.50
2019-03-10T01:09:05.928Z,10.90
2019-03-10T01:11:37.243Z,14.93
2019-03-10T01:14:10.724Z,12.60
2019-03-10T01:16:42.977Z,10.53
2019-03-10T01:19:18.455Z,9.30
2019-03-10T01:21:53.364Z,6.63
2019-03-10T01:24:24.800Z,10.50
2019-03-10T01:26:58.127Z,9.70
2019-03-10T01:29:28.680Z,7.97
2019-03-10T01:32:12.248Z,8.93
2019-03-10T01:35:03.050Z,10.23
2019-03-10T01:37:33.541Z,11.97
2019-03-10T01:40:07.852Z,13.57
2019-03-10T01:42:39.906Z,6.70
2019-03-10T01:45:15.985Z,6.90
2019-03-10T01:47:46.479Z,9.23
2019-03-10T01:50:17.235Z,7.80
2019-03-10T01:52:47.984Z,11.53
2019-03-10T01:55:18.778Z,6.93
2019-03-10T01:57:55.227Z,6.27
2019-03-10T02:00:25.865Z,6.27
2019-03-10T02:02:58.145Z,7.80
2019-03-10T02:05:29.403Z,8.83
2019-03-10T02:07:59.940Z,7.50
2019-03-10T02:10:30.461Z,6.90
2019-03-10T02:13:02.093Z,7.43
2019-03-10T02:15:32.747Z,8.77
2019-03-10T02:18:03.445Z,10.23
2019-03-10T02:20:33.904Z,9.93
2019-03-10T02:23:04.635Z,9.20
2019-03-10T02:25:35.139Z,7.97
2019-03-10T02:28:06.174Z,9.47
2019-03-10T02:30:40.908Z,7.80
2019-03-10T02:33:16.476Z,5.67
2019-03-10T02:35:49.552Z,10.47
2019-03-10T02:38:20.456Z,9.50
2019-03-10T02:40:53.400Z,7.97
2019-03-10T02:43:23.987Z,8.57
2019-03-10T02:45:54.654Z,8.27
2019-03-10T02:48:28.194Z,7.47
2019-03-10T02:50:58.726Z,7.73
2019-03-10T02:53:29.289Z,7.10
2019-03-10T02:55:59.845Z,9.60
2019-03-10T02:58:31.985Z,8.80
2019-03-10T03:01:03.681Z,12.00
2019-03-10T03:03:36.322Z,8.87
2019-03-10T03:06:10.711Z,10.43
2019-03-10T03:08:41.388Z,6.27
2019-03-10T03:11:14.237Z,7.17
2019-03-10T03:13:46.215Z,6.70
2019-03-10T03:16:19.277Z,9.43
2019-03-10T03:18:49.864Z,4.90
2019-03-10T03:21:24.996Z,12.93
2019-03-10T03:23:55.487Z,7.47
2019-03-10T03:26:27.174Z,5.60
2019-03-10T03:28:58.384Z,8.30
2019-03-10T03:31:33.669Z,8.60
2019-03-10T03:34:04.597Z,9.13
2019-03-10T03:36:38.378Z,5.33
2019-03-10T03:39:24.388Z,8.67
2019-03-10T03:41:57.136Z,6.67
2019-03-10T03:44:27.717Z,7.80
2019-03-10T03:47:03.305Z,5.20
2019-03-10T03:49:36.346Z,10.97
2019-03-10T03:52:07.218Z,5.27
2019-03-10T03:54:40.536Z,8.60
2019-03-10T03:57:11.028Z,8.83
2019-03-10T03:59:44.949Z,8.87
2019-03-10T04:02:50.215Z,8.07
2019-03-10T04:05:20.856Z,9.53
2019-03-10T04:07:51.398Z,8.80
2019-03-10T04:10:22.139Z,6.60
2019-03-10T04:12:55.798Z,10.77
2019-03-10T04:15:29.966Z,11.97
2019-03-10T04:18:04.487Z,7.53
2019-03-10T04:20:35.135Z,8.83
2019-03-10T04:23:05.695Z,8.37
2019-03-10T04:25:36.432Z,8.77
2019-03-10T04:28:06.911Z,10.43
2019-03-10T04:30:43.084Z,8.33
2019-03-10T04:33:17.253Z,10.40
2019-03-10T04:35:48.619Z,10.87
2019-03-10T04:38:19.098Z,7.87
2019-03-10T04:40:49.715Z,12.60
2019-03-10T04:43:21.435Z,9.03
2019-03-10T04:45:52.346Z,10.33
2019-03-10T04:48:22.802Z,10.73
2019-03-10T04:50:53.760Z,8.00
2019-03-10T04:53:24.207Z,11.80
2019-03-10T04:55:59.683Z,12.70
2019-03-10T04:58:36.567Z,13.63
2019-03-10T05:01:08.933Z,10.17
2019-03-10T05:03:42.201Z,12.73
2019-03-10T05:06:15.154Z,10.57
2019-03-10T05:08:45.713Z,10.03
2019-03-10T05:11:17.758Z,14.07
2019-03-10T05:13:48.297Z,12.10
2019-03-10T05:16:20.177Z,14.23
2019-03-10T05:18:50.800Z,11.40
2019-03-10T05:21:22.347Z,12.87
2019-03-10T05:23:53.179Z,10.97
2019-03-10T05:26:23.860Z,12.13
2019-03-10T05:28:54.623Z,11.57
2019-03-10T05:31:28.296Z,15.80
2019-03-10T05:34:00.142Z,12.27
2019-03-10T05:36:30.775Z,8.90
2019-03-10T05:39:05.276Z,16.20
2019-03-10T05:41:37.597Z,16.60
2019-03-10T05:44:08.079Z,8.90
2019-03-10T05:46:40.199Z,11.77
2019-03-10T05:49:10.951Z,11.00
2019-03-10T05:51:53.813Z,10.93
2019-03-10T05:54:24.725Z,11.40
2019-03-10T05:56:55.360Z,10.93
2019-03-10T05:59:28.795Z,12.87
2019-03-10T06:02:02.519Z,11.17
2019-03-10T06:04:33.059Z,13.43
2019-03-10T06:07:04.244Z,12.57
2019-03-10T06:09:36.416Z,11.10
2019-03-10T06:12:06.926Z,11.17
2019-03-10T06:14:40.782Z,16.80
2019-03-10T06:17:12.738Z,8.17
2019-03-10T06:19:46.348Z,15.90
2019-03-10T06:22:19.949Z,17.37
2019-03-10T06:24:50.479Z,14.13
2019-03-10T06:27:22.508Z,13.80
2019-03-10T06:29:55.517Z,45.50
2019-03-10T06:32:26.036Z,15.00
2019-03-10T06:35:02.283Z,13.23
2019-03-10T06:37:32.845Z,13.97
2019-03-10T06:40:07.863Z,13.03
2019-03-10T06:42:38.414Z,13.87
2019-03-10T06:45:13.449Z,11.03
2019-03-10T06:47:46.568Z,12.13
2019-03-10T06:50:18.434Z,12.97
2019-03-10T06:52:49.176Z,13.53
2019-03-10T06:55:19.976Z,10.43
2019-03-10T06:57:53.557Z,10.17
2019-03-10T07:00:26.585Z,15.47
2019-03-10T07:03:01.914Z,14.40
2019-03-10T07:05:35.426Z,10.73
2019-03-10T07:08:06.074Z,16.80
2019-03-10T07:10:38.288Z,12.07
2019-03-10T07:13:09.000Z,12.50
2019-03-10T07:15:41.210Z,11.33
2019-03-10T07:18:12.026Z,12.77
2019-03-10T07:20:43.319Z,11.17
2019-03-10T07:23:19.824Z,12.53
2019-03-10T07:26:05.076Z,9.30
2019-03-10T07:29:11.072Z,11.27
2019-03-10T07:32:08.929Z,14.57
2019-03-10T07:35:04.160Z,9.97
2019-03-10T07:37:49.187Z,12.40
2019-03-10T07:40:37.748Z,11.80
2019-03-10T07:43:40.130Z,9.50
2019-03-10T07:46:31.066Z,11.63
2019-03-10T07:49:18.161Z,7.47
2019-03-10T07:52:07.280Z,11.23
2019-03-10T07:55:15.020Z,12.43
2019-03-10T07:58:03.339Z,14.23
2019-03-10T08:00:46.377Z,14.87
2019-03-10T08:03:34.837Z,15.03
2019-03-10T08:06:25.257Z,13.30
2019-03-10T08:09:06.781Z,12.20
2019-03-10T08:11:56.405Z,11.57
2019-03-10T08:14:59.396Z,13.07
2019-03-10T08:17:48.414Z,15.33
2019-03-10T08:20:30.275Z,14.77
2019-03-10T08:23:16.331Z,11.00
2019-03-10T08:26:06.611Z,15.90
2019-03-10T08:29:02.848Z,13.80
2019-03-10T08:31:52.029Z,10.07
2019-03-10T08:34:33.840Z,10.53
2019-03-10T08:37:15.412Z,9.37
2019-03-10T08:39:53.645Z,11.43
2019-03-10T08:42:33.580Z,9.93
2019-03-10T08:45:31.352Z,14.80
2019-03-10T08:52:30.465Z,11.57
2019-03-10T08:55:09.709Z,11.37
2019-03-10T08:58:12.663Z,11.80
2019-03-10T09:00:55.589Z,10.50
2019-03-10T09:03:34.379Z,9.63
2019-03-10T09:06:23.529Z,11.13
2019-03-10T09:09:24.499Z,10.50
2019-03-10T09:12:13.100Z,10.23
2019-03-10T09:15:02.799Z,11.70
2019-03-10T09:21:24.023Z,13.43
2019-03-10T09:24:22.896Z,12.77
2019-03-10T09:27:21.749Z,12.77
2019-03-10T09:33:43.981Z,11.20
2019-03-10T09:36:40.042Z,10.43
2019-03-10T09:39:24.677Z,7.57
2019-03-10T09:42:27.864Z,12.33
2019-03-10T09:45:16.695Z,8.13
2019-03-10T09:48:01.442Z,14.97
2019-03-10T09:50:39.023Z,11.13
2019-03-10T09:53:23.960Z,8.97
2019-03-10T09:56:28.729Z,10.80
2019-03-10T10:03:05.886Z,11.17
2019-03-10T10:05:56.049Z,9.67
2019-03-10T10:08:51.625Z,8.83
2019-03-10T10:11:28.799Z,7.57
2019-03-10T10:14:05.950Z,9.30
2019-03-10T10:16:54.821Z,7.63
2019-03-10T10:23:48.634Z,8.57
2019-03-10T10:26:42.385Z,9.23
2019-03-10T10:29:26.839Z,12.03
2019-03-10T10:36:23.271Z,10.43
2019-03-10T10:39:15.836Z,9.27
2019-03-10T10:46:13.877Z,10.47
2019-03-10T10:48:51.371Z,14.57
2019-03-10T10:51:41.049Z,11.90
2019-03-10T10:54:33.964Z,11.17
2019-03-10T10:57:17.989Z,16.97
2019-03-10T10:59:56.496Z,14.50
2019-03-10T11:02:53.303Z,11.17
2019-03-10T11:05:30.315Z,15.73
2019-03-10T11:08:16.671Z,11.27
2019-03-10T11:11:09.327Z,16.80
2019-03-10T11:17:27.712Z,16.27
2019-03-10T11:20:04.818Z,17.03
2019-03-10T11:22:54.333Z,13.03
2019-03-10T11:25:30.238Z,14.80
2019-03-10T11:28:09.184Z,11.80
2019-03-10T11:31:05.202Z,15.13
2019-03-10T11:33:52.795Z,12.27
2019-03-10T11:36:41.106Z,15.83
2019-03-10T11:39:24.772Z,15.73
2019-03-10T11:42:03.050Z,12.40
2019-03-10T11:44:51.619Z,9.13
2019-03-10T11:47:30.432Z,8.40
2019-03-10T11:50:25.054Z,7.77
2019-03-10T11:53:19.750Z,9.97
2019-03-10T11:56:09.086Z,10.10
2019-03-10T11:58:53.959Z,13.73
2019-03-10T12:01:44.057Z,8.67
2019-03-10T12:04:22.964Z,7.63
2019-03-10T12:07:02.740Z,11.90
2019-03-10T12:13:27.560Z,7.60
2019-03-10T12:15:58.025Z,5.53
2019-03-10T12:18:28.533Z,8.20
2019-03-10T12:20:59.033Z,7.57
2019-03-10T12:23:30.249Z,6.13
2019-03-10T12:26:00.791Z,9.50
2019-03-10T12:28:31.552Z,7.43
2019-03-10T12:31:02.564Z,7.50
2019-03-10T12:33:33.245Z,10.17
2019-03-10T12:36:08.356Z,16.73
2019-03-10T12:38:38.971Z,16.37
2019-03-10T12:41:09.726Z,18.27
2019-03-10T12:43:40.282Z,15.00
2019-03-10T12:46:10.837Z,10.80
2019-03-10T12:48:41.475Z,14.57
2019-03-10T12:51:13.073Z,5.27
2019-03-10T12:53:43.786Z,8.33
2019-03-10T12:56:14.542Z,10.23
2019-03-10T12:58:45.259Z,10.50
2019-03-10T13:01:16.770Z,10.60
2019-03-10T13:03:58.011Z,10.20
2019-03-10T13:06:19.802Z,12.47
2019-03-10T13:08:50.610Z,6.53
2019-03-10T13:11:24.093Z,11.73
2019-03-10T13:13:54.698Z,14.33
2019-03-10T13:16:25.304Z,11.13
2019-03-10T13:18:56.484Z,7.97
2019-03-10T13:21:27.190Z,9.47
2019-03-10T13:23:57.813Z,14.67
2019-03-10T13:26:28.504Z,16.33
2019-03-10T13:28:59.040Z,10.50
2019-03-10T13:31:30.592Z,9.80
2019-03-10T13:34:03.211Z,6.93
2019-03-10T13:36:36.677Z,8.03
2019-03-10T13:39:08.416Z,8.43
2019-03-10T13:41:41.116Z,5.83
2019-03-10T13:44:14.515Z,8.97
2019-03-10T13:46:48.385Z,7.67
2019-03-10T13:49:28.791Z,6.37
2019-03-10T13:52:01.158Z,4.27
2019-03-10T13:54:31.992Z,6.30
2019-03-10T13:57:06.339Z,9.23
2019-03-10T13:59:37.154Z,9.13
2019-03-10T14:02:11.399Z,6.27
2019-03-10T14:04:45.126Z,9.33
2019-03-10T14:07:20.877Z,8.63
2019-03-10T14:09:52.884Z,7.53
2019-03-10T14:12:23.365Z,7.07
2019-03-10T14:14:57.192Z,6.00
2019-03-10T14:17:29.003Z,6.30
2019-03-10T14:20:02.346Z,8.90
2019-03-10T14:22:34.066Z,8.10
2019-03-10T14:25:06.891Z,11.70
2019-03-10T14:27:43.171Z,6.60
2019-03-10T14:30:14.045Z,7.13
2019-03-10T14:32:44.636Z,10.47
2019-03-10T14:35:18.187Z,7.30
2019-03-10T14:37:51.507Z,7.00
2019-03-10T14:40:25.991Z,7.73
2019-03-10T14:42:56.518Z,8.40
2019-03-10T14:45:27.015Z,10.77
2019-03-10T14:47:57.492Z,8.37
2019-03-10T14:50:27.956Z,10.33
2019-03-10T14:53:04.525Z,5.73
2019-03-10T14:55:37.289Z,11.57
2019-03-10T14:58:08.209Z,7.60
2019-03-10T15:00:38.660Z,9.30
2019-03-10T15:03:11.874Z,9.73
2019-03-10T15:05:43.851Z,12.97
2019-03-10T15:08:14.603Z,10.73
2019-03-10T15:10:46.452Z,9.13
2019-03-10T15:13:18.600Z,62.63
2019-03-10T15:15:52.111Z,17.80
2019-03-10T15:18:24.113Z,10.43
2019-03-10T15:20:55.820Z,16.30
2019-03-10T15:23:29.355Z,19.07
2019-03-10T15:26:00.119Z,11.27
2019-03-10T15:28:30.670Z,6.47
2019-03-10T15:31:02.077Z,10.57
2019-03-10T15:33:32.829Z,12.23
2019-03-10T15:36:05.501Z,12.37
2019-03-10T15:38:37.872Z,15.70
2019-03-10T15:41:08.396Z,13.80
2019-03-10T15:43:39.648Z,14.23
2019-03-10T15:46:10.080Z,14.07
2019-03-10T15:48:43.263Z,12.50
2019-03-10T15:51:18.563Z,12.50
2019-03-10T15:53:50.758Z,20.80
2019-03-10T15:56:22.221Z,17.50
2019-03-10T15:58:53.848Z,15.20
2019-03-10T16:01:26.295Z,16.93
2019-03-10T16:03:58.623Z,16.80
2019-03-10T16:06:29.232Z,11.37
2019-03-10T16:09:01.520Z,16.77
2019-03-10T16:11:36.120Z,22.97
2019-03-10T16:14:09.772Z,31.17
2019-03-10T16:16:44.046Z,35.73
2019-03-10T16:19:14.733Z,29.57
2019-03-10T16:21:45.397Z,18.20
2019-03-10T16:24:16.008Z,15.67
2019-03-10T16:26:48.788Z,17.77
2019-03-10T16:29:19.378Z,17.60
2019-03-10T16:31:52.358Z,17.47
2019-03-10T16:34:22.988Z,14.30
2019-03-10T16:36:55.860Z,15.87
2019-03-10T16:39:26.369Z,14.80
2019-03-10T16:41:56.909Z,14.67
2019-03-10T16:44:30.426Z,16.83
2019-03-10T16:47:02.203Z,17.37
2019-03-10T16:49:32.964Z,21.73
2019-03-10T16:52:03.682Z,19.40
2019-03-10T16:54:36.914Z,18.93
2019-03-10T16:57:07.419Z,21.17
2019-03-10T16:59:37.889Z,20.63
2019-03-10T17:02:08.504Z,14.83
2019-03-10T17:04:39.328Z,11.80
2019-03-10T17:07:09.906Z,11.73
2019-03-10T17:09:40.473Z,11.70
2019-03-10T17:12:11.055Z,11.97
2019-03-10T17:14:43.122Z,11.60
2019-03-10T17:17:16.051Z,12.70
2019-03-10T17:19:46.622Z,12.00
2019-03-10T17:22:17.243Z,13.67
2019-03-10T17:24:50.867Z,12.87
2019-03-10T17:27:21.303Z,15.00
2019-03-10T17:29:52.249Z,18.37
2019-03-10T17:32:22.923Z,18.13
2019-03-10T17:34:54.022Z,17.67
2019-03-10T17:37:25.109Z,19.17
2019-03-10T17:39:55.937Z,16.93
2019-03-10T17:42:31.927Z,21.03
2019-03-10T17:48:45.180Z,7.93
2019-03-10T17:51:17.027Z,9.03
2019-03-10T17:53:50.666Z,9.43
2019-03-10T17:56:21.896Z,8.47
2019-03-10T17:58:54.504Z,8.97
2019-03-10T18:01:27.261Z,9.50
2019-03-10T18:07:52.380Z,10.73
2019-03-10T18:10:23.144Z,10.47
2019-03-10T18:12:55.914Z,15.20
2019-03-10T18:15:28.199Z,16.57
2019-03-10T18:18:01.344Z,12.53
2019-03-10T18:20:33.338Z,14.57
2019-03-10T18:23:06.630Z,10.60
2019-03-10T18:25:40.378Z,11.73
2019-03-10T18:28:13.157Z,12.00
2019-03-10T18:30:44.733Z,11.30
2019-03-10T18:33:19.796Z,9.00
2019-03-10T18:35:54.665Z,9.13
2019-03-10T18:38:30.097Z,9.40
2019-03-10T18:41:07.645Z,7.30
2019-03-10T18:43:38.629Z,7.83
2019-03-10T18:46:09.614Z,9.53
2019-03-10T18:48:43.320Z,8.80
2019-03-10T18:51:20.565Z,11.13
2019-03-10T18:53:51.412Z,10.20
2019-03-10T18:56:27.711Z,9.47
2019-03-10T18:59:05.286Z,11.33
2019-03-10T19:01:38.944Z,9.93
2019-03-10T19:04:13.956Z,10.13
2019-03-10T19:06:46.400Z,10.87
2019-03-10T19:09:21.466Z,10.67
2019-03-10T19:11:55.911Z,9.87
2019-03-10T19:14:27.525Z,10.93
2019-03-10T19:17:00.995Z,8.37
2019-03-10T19:19:32.172Z,9.53
2019-03-10T19:22:03.623Z,10.27
2019-03-10T19:24:36.938Z,7.47
2019-03-10T19:27:08.078Z,10.87
2019-03-10T19:29:40.882Z,8.83
2019-03-10T19:32:11.736Z,10.57
2019-03-10T19:34:47.289Z,8.77
2019-03-10T19:37:18.781Z,6.60
2019-03-10T19:39:52.911Z,8.03
2019-03-10T19:42:23.960Z,4.43
2019-03-10T19:44:54.964Z,5.00
2019-03-10T19:47:26.074Z,4.63
2019-03-10T19:49:57.800Z,4.97
2019-03-10T19:52:29.658Z,5.67
2019-03-10T19:55:00.993Z,7.03
2019-03-10T19:57:33.364Z,7.33
2019-03-10T20:00:05.976Z,4.63
2019-03-10T20:02:37.029Z,6.00
2019-03-10T20:05:08.074Z,5.50
2019-03-10T20:07:38.984Z,3.57
2019-03-10T20:10:11.403Z,6.60
2019-03-10T20:12:42.379Z,4.50
2019-03-10T20:15:15.031Z,6.17
2019-03-10T20:21:40.614Z,4.13
2019-03-10T20:24:11.367Z,3.60
2019-03-10T20:26:42.190Z,4.50
2019-03-10T20:29:13.376Z,5.70
2019-03-10T20:31:45.347Z,5.27
2019-03-10T20:34:16.150Z,4.67
2019-03-10T20:36:46.912Z,4.93
2019-03-10T20:39:17.983Z,5.17
2019-03-10T20:41:49.165Z,5.43
2019-03-10T20:44:19.968Z,4.97
2019-03-10T20:46:50.701Z,6.43
2019-03-10T20:49:21.571Z,7.40
2019-03-10T20:51:52.469Z,4.97
2019-03-10T20:54:23.233Z,5.07
2019-03-10T20:56:53.846Z,7.13
2019-03-10T20:59:24.527Z,6.37
2019-03-10T21:01:55.534Z,6.93
2019-03-10T21:04:26.523Z,4.23
2019-03-10T21:07:00.384Z,6.40
2019-03-10T21:09:31.218Z,7.13
2019-03-10T21:12:01.967Z,6.23
2019-03-10T21:14:34.547Z,5.00
2019-03-10T21:17:05.631Z,7.20
2019-03-10T21:19:36.408Z,9.57
2019-03-10T21:22:13.058Z,7.57
2019-03-10T21:24:43.883Z,5.60
2019-03-10T21:27:14.958Z,6.17
2019-03-10T21:29:46.166Z,6.37
2019-03-10T21:32:17.931Z,7.47
2019-03-10T21:34:53.671Z,7.87
2019-03-10T21:37:25.803Z,8.70
2019-03-10T21:40:02.474Z,8.93
2019-03-10T21:42:34.842Z,12.77
2019-03-10T21:45:06.673Z,8.50
2019-03-10T21:47:40.456Z,11.17
2019-03-10T21:50:13.987Z,11.07
2019-03-10T21:52:46.029Z,10.83
2019-03-10T21:55:16.867Z,10.37
2019-03-10T21:57:52.745Z,12.63
2019-03-10T22:00:23.637Z,9.77
2019-03-10T22:02:54.284Z,15.70
2019-03-10T22:05:26.611Z,13.70
2019-03-10T22:07:57.285Z,15.40
2019-03-10T22:10:30.379Z,13.90
2019-03-10T22:13:06.959Z,16.23
2019-03-10T22:15:42.532Z,20.80
2019-03-10T22:18:13.640Z,21.00
2019-03-10T22:20:47.392Z,11.43
2019-03-10T22:23:35.033Z,15.37
2019-03-10T22:26:05.736Z,20.23
2019-03-10T22:28:36.575Z,21.13
2019-03-10T22:31:09.820Z,18.57
2019-03-10T22:33:40.660Z,21.40
2019-03-10T22:36:12.370Z,21.27
2019-03-10T22:38:43.576Z,19.07
2019-03-10T22:41:14.549Z,23.73
2019-03-10T22:43:46.871Z,21.33
2019-03-10T22:46:17.971Z,22.00
2019-03-10T22:48:49.557Z,21.57
2019-03-10T22:51:20.697Z,21.83
2019-03-10T22:53:55.239Z,22.07
2019-03-10T22:56:28.719Z,20.57
2019-03-10T22:58:59.919Z,19.57
2019-03-10T23:01:33.401Z,23.30
2019-03-10T23:04:05.153Z,24.43
2019-03-10T23:06:36.543Z,21.70
2019-03-10T23:09:08.486Z,28.93
2019-03-10T23:11:40.807Z,23.80
2019-03-10T23:14:16.618Z,28.00
2019-03-10T23:16:47.619Z,27.93
2019-03-10T23:19:20.170Z,26.80
2019-03-10T23:21:50.824Z,29.67
2019-03-10T23:24:21.472Z,27.43
2019-03-10T23:26:55.896Z,21.93
2019-03-10T23:29:29.069Z,28.13
2019-03-10T23:32:02.001Z,32.40
2019-03-10T23:34:32.482Z,31.20
2019-03-10T23:37:05.078Z,30.10
2019-03-10T23:39:37.097Z,27.20
2019-03-10T23:42:11.289Z,30.17
2019-03-10T23:44:48.196Z,26.00
2019-03-10T23:47:19.596Z,35.63
2019-03-10T23:49:50.193Z,30.20
2019-03-10T23:52:20.966Z,31.43
2019-03-10T23:54:52.100Z,27.63
2019-03-10T23:57:23.980Z,26.73
2019-03-10T23:59:54.489Z,25.20
